Betancuria — EAMH — position and weather

sailwx.info

Track history (hours):
 
Tides and Currents Weather Stations Pressure Air Temp Water Temp Dewpoint Dewpoint Depression Visibility Wind Speed Wind Dir Waves Ship Positions

Betancuria

Last reported at 2016-May-06 20:27 UTC. Time now 2016-May-06 20:38 UTC.
Position N 28°09' W 015°25'.

Length 141 m; draft 4.7 m.

Type: Ship. MMSI: 224471000.

Date/timePositionNaut miles runAvg speedWind from/ knotsBaromVisibWave heightAir tempDewpointWater temp
2016-May-06 20:27N 28°09' W 015°25'0 0.0
2016-May-06 19:30N 28°09' W 015°25'0 0.0
2016-May-06 18:30N 28°09' W 015°25'0 0.0
2016-May-06 17:30N 28°09' W 015°25'0 0.0
2016-May-06 16:30N 28°09' W 015°25'0 0.0
2016-May-06 15:33N 28°09' W 015°25'0 0.0
2016-May-06 14:30N 28°09' W 015°25'0 0.0
2016-May-06 13:33N 28°09' W 015°25'2 2.4
2016-May-06 12:33N 28°07' W 015°23'9 9.0
2016-May-06 11:33N 28°15' W 015°19'1111.2
2016-May-06 10:33N 28°25' W 015°14'1111.1
2016-May-06 09:33N 28°36' W 015°09'1111.0
2016-May-06 08:33N 28°46' W 015°04'  
2016-May-04 02:16N 37°32' W 010°36'811.1
2016-May-04 01:33N 37°39' W 010°33'1111.1
2016-May-04 00:33N 37°50' W 010°28'1111.1
2016-May-03 23:33N 38°00' W 010°24'1111.4
2016-May-03 22:33N 38°11' W 010°20'1111.4
2016-May-03 21:33N 38°22' W 010°15'1111.2
2016-May-03 20:32N 38°32' W 010°09'9 9.4
2016-May-03 19:33N 38°41' W 010°06'1311.0
2016-May-03 18:24N 38°54' W 010°06'1011.2
2016-May-03 17:33N 39°03' W 010°06'  
2016-Apr-30 20:32N 49°57' W 002°55'10510.5
2016-Apr-30 10:33N 50°28' W 000°19'1211.6
2016-Apr-30 09:33N 50°32' W 000°01'1212.0
2016-Apr-30 08:33N 50°35' E 000°17'4410.9
2016-Apr-30 04:33N 50°58' E 001°15'10 9.7
2016-Apr-30 03:33N 51°04' E 001°27'1110.6
2016-Apr-30 02:33N 51°11' E 001°40'1111.4
2016-Apr-30 01:33N 51°21' E 001°49'1212.1
2016-Apr-30 00:33N 51°31' E 002°00'1211.7
2016-Apr-29 23:33N 51°40' E 002°13'150 8.8
2016-Apr-29 06:32N 53°32' E 004°57'10 9.8
2016-Apr-29 05:33N 53°36' E 005°12'1010.1
2016-Apr-29 04:33N 53°39' E 005°28'10 9.9
2016-Apr-29 03:33N 53°42' E 005°44'1010.4
2016-Apr-29 02:33N 53°45' E 006°00'10 9.9
2016-Apr-29 01:33N 53°48' E 006°16'9 9.4
2016-Apr-29 00:33N 53°51' E 006°32'9 9.2
2016-Apr-28 23:33N 53°53' E 006°47'9 9.2
2016-Apr-28 22:34N 53°55' E 007°02'10 9.8
2016-Apr-28 21:33N 53°58' E 007°18'1110.7
2016-Apr-28 20:33N 54°00' E 007°36'1111.3
2016-Apr-28 19:33N 54°01' E 007°55'1111.0
2016-Apr-28 18:33N 54°00' E 008°14'1313.0
2016-Apr-28 17:33N 53°58' E 008°36'1010.4
2016-Apr-28 16:33N 53°50' E 008°48'8 8.5
2016-Apr-28 15:34N 53°52' E 009°02'7 7.3
2016-Apr-28 14:33N 53°53' E 009°14'7 6.9
2016-Apr-28 13:33N 53°48' E 009°23'1010.2
2016-Apr-28 12:34N 53°39' E 009°31'1111.5
2016-Apr-28 11:33N 53°33' E 009°48'6 5.9
2016-Apr-28 10:32N 53°32' E 009°58'0 0.1
2016-Apr-28 09:32N 53°32' E 009°58'0 0.0
2016-Apr-28 08:32N 53°32' E 009°58'0 0.0
2016-Apr-28 07:32N 53°32' E 009°58'0 0.0
2016-Apr-28 06:32N 53°32' E 009°58'0 0.0
2016-Apr-28 05:32N 53°32' E 009°58'0 0.0
2016-Apr-28 04:32N 53°32' E 009°58'0 0.0
2016-Apr-28 03:32N 53°32' E 009°58'0 0.0
2016-Apr-28 02:32N 53°32' E 009°58'0 0.0
2016-Apr-28 01:32N 53°32' E 009°58'0 0.0
2016-Apr-28 00:32N 53°32' E 009°58'0 0.0
2016-Apr-27 23:32N 53°32' E 009°58'0 0.0
2016-Apr-27 22:32N 53°32' E 009°58'0 0.0
2016-Apr-27 21:32N 53°32' E 009°58'0 0.0
2016-Apr-27 20:32N 53°32' E 009°58'0 0.0
2016-Apr-27 19:32N 53°32' E 009°58'0 0.0
2016-Apr-27 18:32N 53°32' E 009°58'0 0.0
2016-Apr-27 17:32N 53°32' E 009°58'0 0.0
2016-Apr-27 16:32N 53°32' E 009°58'0 0.0
2016-Apr-27 15:32N 53°32' E 009°58'0 0.0
2016-Apr-27 14:32N 53°32' E 009°58'0 0.0
2016-Apr-27 13:32N 53°32' E 009°58'0 0.0
2016-Apr-27 12:32N 53°32' E 009°58'0 0.0
2016-Apr-27 11:32N 53°32' E 009°58'0 0.0
2016-Apr-27 10:32N 53°32' E 009°58'0 0.0
2016-Apr-27 09:32N 53°32' E 009°58'0 0.0
2016-Apr-27 08:32N 53°32' E 009°58'0 0.0
2016-Apr-27 07:32N 53°32' E 009°58'0 0.0
2016-Apr-27 06:32N 53°32' E 009°58'0 0.0
2016-Apr-27 05:32N 53°32' E 009°58'0 0.0
2016-Apr-27 04:32N 53°32' E 009°58'0 0.0
2016-Apr-27 03:32N 53°32' E 009°58'0 0.0
2016-Apr-27 02:32N 53°32' E 009°58'0 0.0
2016-Apr-27 01:32N 53°32' E 009°58'0 0.0
2016-Apr-27 00:32N 53°32' E 009°58'0 0.0
2016-Apr-26 23:32N 53°32' E 009°58'0 0.0
2016-Apr-26 22:32N 53°32' E 009°58'0 0.0
2016-Apr-26 21:32N 53°32' E 009°58'0 0.0
2016-Apr-26 20:32N 53°32' E 009°58'  
Track history (hours):
 
Tides and Currents Weather Stations Pressure Air Temp Water Temp Dewpoint Dewpoint Depression Visibility Wind Speed Wind Dir Waves Ship Positions

Betancuria

Last reported at 2016-May-06 20:27 UTC. Time now 2016-May-06 20:38 UTC.
Position N 28°09' W 015°25'.

Length 141 m; draft 4.7 m.

Type: Ship. MMSI: 224471000.

Date/timePositionNaut miles runAvg speedWind from/ knotsBaromVisibWave heightAir tempDewpointWater temp
2016-May-06 20:27N 28°09' W 015°25'0 0.0
2016-May-06 19:30N 28°09' W 015°25'0 0.0
2016-May-06 18:30N 28°09' W 015°25'0 0.0
2016-May-06 17:30N 28°09' W 015°25'0 0.0
2016-May-06 16:30N 28°09' W 015°25'0 0.0
2016-May-06 15:33N 28°09' W 015°25'0 0.0
2016-May-06 14:30N 28°09' W 015°25'0 0.0
2016-May-06 13:33N 28°09' W 015°25'2 2.4
2016-May-06 12:33N 28°07' W 015°23'9 9.0
2016-May-06 11:33N 28°15' W 015°19'1111.2
2016-May-06 10:33N 28°25' W 015°14'1111.1
2016-May-06 09:33N 28°36' W 015°09'1111.0
2016-May-06 08:33N 28°46' W 015°04'  
2016-May-04 02:16N 37°32' W 010°36'811.1
2016-May-04 01:33N 37°39' W 010°33'1111.1
2016-May-04 00:33N 37°50' W 010°28'1111.1
2016-May-03 23:33N 38°00' W 010°24'1111.4
2016-May-03 22:33N 38°11' W 010°20'1111.4
2016-May-03 21:33N 38°22' W 010°15'1111.2
2016-May-03 20:32N 38°32' W 010°09'9 9.4
2016-May-03 19:33N 38°41' W 010°06'1311.0
2016-May-03 18:24N 38°54' W 010°06'1011.2
2016-May-03 17:33N 39°03' W 010°06'  
2016-Apr-30 20:32N 49°57' W 002°55'10510.5
2016-Apr-30 10:33N 50°28' W 000°19'1211.6
2016-Apr-30 09:33N 50°32' W 000°01'1212.0
2016-Apr-30 08:33N 50°35' E 000°17'4410.9
2016-Apr-30 04:33N 50°58' E 001°15'10 9.7
2016-Apr-30 03:33N 51°04' E 001°27'1110.6
2016-Apr-30 02:33N 51°11' E 001°40'1111.4
2016-Apr-30 01:33N 51°21' E 001°49'1212.1
2016-Apr-30 00:33N 51°31' E 002°00'1211.7
2016-Apr-29 23:33N 51°40' E 002°13'150 8.8
2016-Apr-29 06:32N 53°32' E 004°57'10 9.8
2016-Apr-29 05:33N 53°36' E 005°12'1010.1
2016-Apr-29 04:33N 53°39' E 005°28'10 9.9
2016-Apr-29 03:33N 53°42' E 005°44'1010.4
2016-Apr-29 02:33N 53°45' E 006°00'10 9.9
2016-Apr-29 01:33N 53°48' E 006°16'9 9.4
2016-Apr-29 00:33N 53°51' E 006°32'9 9.2
2016-Apr-28 23:33N 53°53' E 006°47'9 9.2
2016-Apr-28 22:34N 53°55' E 007°02'10 9.8
2016-Apr-28 21:33N 53°58' E 007°18'1110.7
2016-Apr-28 20:33N 54°00' E 007°36'1111.3
2016-Apr-28 19:33N 54°01' E 007°55'1111.0
2016-Apr-28 18:33N 54°00' E 008°14'1313.0
2016-Apr-28 17:33N 53°58' E 008°36'1010.4
2016-Apr-28 16:33N 53°50' E 008°48'8 8.5
2016-Apr-28 15:34N 53°52' E 009°02'7 7.3
2016-Apr-28 14:33N 53°53' E 009°14'7 6.9
2016-Apr-28 13:33N 53°48' E 009°23'1010.2
2016-Apr-28 12:34N 53°39' E 009°31'1111.5
2016-Apr-28 11:33N 53°33' E 009°48'6 5.9
2016-Apr-28 10:32N 53°32' E 009°58'0 0.1
2016-Apr-28 09:32N 53°32' E 009°58'0 0.0
2016-Apr-28 08:32N 53°32' E 009°58'0 0.0
2016-Apr-28 07:32N 53°32' E 009°58'0 0.0
2016-Apr-28 06:32N 53°32' E 009°58'0 0.0
2016-Apr-28 05:32N 53°32' E 009°58'0 0.0
2016-Apr-28 04:32N 53°32' E 009°58'0 0.0
2016-Apr-28 03:32N 53°32' E 009°58'0 0.0
2016-Apr-28 02:32N 53°32' E 009°58'0 0.0
2016-Apr-28 01:32N 53°32' E 009°58'0 0.0
2016-Apr-28 00:32N 53°32' E 009°58'0 0.0
2016-Apr-27 23:32N 53°32' E 009°58'0 0.0
2016-Apr-27 22:32N 53°32' E 009°58'0 0.0
2016-Apr-27 21:32N 53°32' E 009°58'0 0.0
2016-Apr-27 20:32N 53°32' E 009°58'0 0.0
2016-Apr-27 19:32N 53°32' E 009°58'0 0.0
2016-Apr-27 18:32N 53°32' E 009°58'0 0.0
2016-Apr-27 17:32N 53°32' E 009°58'0 0.0
2016-Apr-27 16:32N 53°32' E 009°58'0 0.0
2016-Apr-27 15:32N 53°32' E 009°58'0 0.0
2016-Apr-27 14:32N 53°32' E 009°58'0 0.0
2016-Apr-27 13:32N 53°32' E 009°58'0 0.0
2016-Apr-27 12:32N 53°32' E 009°58'0 0.0
2016-Apr-27 11:32N 53°32' E 009°58'0 0.0
2016-Apr-27 10:32N 53°32' E 009°58'0 0.0
2016-Apr-27 09:32N 53°32' E 009°58'0 0.0
2016-Apr-27 08:32N 53°32' E 009°58'0 0.0
2016-Apr-27 07:32N 53°32' E 009°58'0 0.0
2016-Apr-27 06:32N 53°32' E 009°58'0 0.0
2016-Apr-27 05:32N 53°32' E 009°58'0 0.0
2016-Apr-27 04:32N 53°32' E 009°58'0 0.0
2016-Apr-27 03:32N 53°32' E 009°58'0 0.0
2016-Apr-27 02:32N 53°32' E 009°58'0 0.0
2016-Apr-27 01:32N 53°32' E 009°58'0 0.0
2016-Apr-27 00:32N 53°32' E 009°58'0 0.0
2016-Apr-26 23:32N 53°32' E 009°58'0 0.0
2016-Apr-26 22:32N 53°32' E 009°58'0 0.0
2016-Apr-26 21:32N 53°32' E 009°58'0 0.0
2016-Apr-26 20:32N 53°32' E 009°58'  

Dump ship's entire track history